Ryuoh Maru No.2 — JM5900 — position and weather

sailwx.info

Track history (hours):
 
Tides and Currents Weather Stations Pressure Air Temp Water Temp Dewpoint Dewpoint Depression Visibility Wind Speed Wind Dir Waves Ship Positions

Ryuoh Maru No.2

Last reported at 2016-Apr-22 19:17 UTC. Time now 2016-May-06 13:06 UTC.
Position N 36°21' E 141°01'.
Warning: this ship's position is 13 days out of date.

Length 80 m; draft 4.9 m.

Type: Cargo ship. MMSI: 431401218.

Date/timePositionNaut miles runAvg speedWind from/ knotsBaromVisibWave heightAir tempDewpointWater temp
2016-Apr-22 19:17N 36°21' E 141°01'8 9.7
2016-Apr-22 18:30N 36°14' E 141°00'9 9.7
2016-Apr-22 17:33N 36°05' E 140°59'2110.1
2016-Apr-22 15:31N 35°44' E 140°56'10 9.9
2016-Apr-22 14:33N 35°36' E 140°50'1110.6
2016-Apr-22 13:29N 35°27' E 140°42'1010.3
2016-Apr-22 12:33N 35°19' E 140°34'1211.6
2016-Apr-22 11:33N 35°10' E 140°26'1110.7
2016-Apr-22 10:33N 35°03' E 140°16'10 9.8
2016-Apr-22 09:32N 34°58' E 140°05'16 8.1
2016-Apr-22 07:33N 34°54' E 139°47'9 8.8
2016-Apr-22 06:33N 35°02' E 139°43'1010.5
2016-Apr-22 05:33N 35°12' E 139°46'9 9.3
2016-Apr-22 04:33N 35°21' E 139°42'5 5.2
2016-Apr-22 03:33N 35°24' E 139°48'3 2.7
2016-Apr-22 02:33N 35°22' E 139°51'0 0.0
2016-Apr-22 01:33N 35°22' E 139°51'0 0.0
2016-Apr-22 00:33N 35°22' E 139°51'0 0.0
2016-Apr-21 23:33N 35°22' E 139°51'0 0.0
2016-Apr-21 22:33N 35°22' E 139°51'1 1.1
2016-Apr-21 21:32N 35°22' E 139°49'0 0.0
2016-Apr-21 20:33N 35°22' E 139°49'0 0.0
2016-Apr-21 19:33N 35°22' E 139°49'0 0.0
2016-Apr-21 18:33N 35°22' E 139°49'0 0.1
2016-Apr-21 17:33N 35°22' E 139°49'0 0.0
2016-Apr-21 16:34N 35°22' E 139°49'0 0.1
2016-Apr-21 15:34N 35°22' E 139°49'0 0.0
2016-Apr-21 14:33N 35°22' E 139°49'0 0.1
2016-Apr-21 13:34N 35°22' E 139°49'0 0.1
2016-Apr-21 12:34N 35°22' E 139°49'0 0.1
2016-Apr-21 11:33N 35°22' E 139°49'0 0.0
2016-Apr-21 10:33N 35°22' E 139°49'0 0.0
2016-Apr-21 09:33N 35°22' E 139°49'0 0.0
2016-Apr-21 08:34N 35°22' E 139°49'0 0.0
2016-Apr-21 07:33N 35°22' E 139°49'0 0.0
2016-Apr-21 06:33N 35°22' E 139°49'0 0.0
2016-Apr-21 05:33N 35°22' E 139°49'0 0.1
2016-Apr-21 04:33N 35°22' E 139°49'0 0.0
2016-Apr-21 03:33N 35°22' E 139°49'0 0.0
2016-Apr-21 02:33N 35°22' E 139°49'0 0.0
2016-Apr-21 01:33N 35°22' E 139°49'0 0.0
2016-Apr-21 00:33N 35°22' E 139°49'0 0.0
2016-Apr-20 23:33N 35°22' E 139°49'0 0.1
2016-Apr-20 22:33N 35°22' E 139°49'0 0.1
2016-Apr-20 21:33N 35°22' E 139°49'0 0.0
2016-Apr-20 20:33N 35°22' E 139°49'0 0.0
2016-Apr-20 19:33N 35°22' E 139°49'0 0.0
2016-Apr-20 18:33N 35°22' E 139°49'0 0.0
2016-Apr-20 17:33N 35°22' E 139°49'0 0.0
2016-Apr-20 16:33N 35°22' E 139°49'0 0.0
2016-Apr-20 15:33N 35°22' E 139°49'0 0.0
2016-Apr-20 14:33N 35°22' E 139°49'0 0.0
2016-Apr-20 13:33N 35°22' E 139°49'0 0.0
2016-Apr-20 12:33N 35°22' E 139°49'0 0.0
2016-Apr-20 11:33N 35°22' E 139°49'0 0.1
2016-Apr-20 10:33N 35°22' E 139°49'0 0.0
2016-Apr-20 09:33N 35°22' E 139°49'0 0.0
2016-Apr-20 08:30N 35°22' E 139°49'0 0.0
2016-Apr-20 07:33N 35°22' E 139°49'0 0.0
2016-Apr-20 06:33N 35°22' E 139°49'0 0.0
2016-Apr-20 05:33N 35°22' E 139°49'0 0.0
2016-Apr-20 04:33N 35°22' E 139°49'0 0.0
2016-Apr-20 03:30N 35°22' E 139°49'0 0.0
2016-Apr-20 02:33N 35°22' E 139°49'0 0.1
2016-Apr-20 01:33N 35°22' E 139°49'0 0.0
2016-Apr-20 00:33N 35°22' E 139°49'0 0.0
2016-Apr-19 23:33N 35°22' E 139°49'0 0.0
2016-Apr-19 22:33N 35°22' E 139°49'0 0.0
2016-Apr-19 21:33N 35°22' E 139°49'0 0.0
2016-Apr-19 20:33N 35°22' E 139°49'0 0.0
2016-Apr-19 19:30N 35°22' E 139°49'0 0.0
2016-Apr-19 18:33N 35°22' E 139°49'0 0.0
2016-Apr-19 17:33N 35°22' E 139°49'0 0.0
2016-Apr-19 16:33N 35°22' E 139°49'0 0.0
2016-Apr-19 15:33N 35°22' E 139°49'0 0.0
2016-Apr-19 14:33N 35°22' E 139°49'0 0.0
2016-Apr-19 13:33N 35°22' E 139°49'0 0.0
2016-Apr-19 12:33N 35°22' E 139°49'0 0.0
2016-Apr-19 11:33N 35°22' E 139°49'0 0.0
2016-Apr-19 10:33N 35°22' E 139°49'0 0.1
2016-Apr-19 09:33N 35°22' E 139°49'0 0.1
2016-Apr-19 08:33N 35°22' E 139°49'0 0.0
2016-Apr-19 07:33N 35°22' E 139°49'0 0.1
2016-Apr-19 06:33N 35°22' E 139°49'6 5.6
2016-Apr-19 05:33N 35°17' E 139°46'1111.2
2016-Apr-19 04:33N 35°06' E 139°45'1110.6
2016-Apr-19 03:33N 34°55' E 139°46'1110.3
2016-Apr-19 02:30N 34°53' E 139°59'1010.1
2016-Apr-19 01:33N 34°59' E 140°08'18 8.8
2016-Apr-18 23:31N 35°10' E 140°26'1010.2
2016-Apr-18 22:33N 35°17' E 140°33'1110.9
2016-Apr-18 21:33N 35°26' E 140°41'1110.9
2016-Apr-18 20:33N 35°34' E 140°50'1110.1
2016-Apr-18 19:27N 35°45' E 140°55'910.1
2016-Apr-18 18:33N 35°53' E 140°50'6 5.5
2016-Apr-18 17:32N 35°57' E 140°45'0 0.0
2016-Apr-18 16:32N 35°57' E 140°45'0 0.0
2016-Apr-18 15:32N 35°57' E 140°45'0 0.0
2016-Apr-18 14:32N 35°57' E 140°45'0 0.0
2016-Apr-18 13:29N 35°57' E 140°45'0 0.0
2016-Apr-18 12:32N 35°57' E 140°45'0 0.0
2016-Apr-18 10:20N 35°57' E 140°45'0 0.0
2016-Apr-18 07:32N 35°57' E 140°45'0 0.0
2016-Apr-18 05:26N 35°57' E 140°44'0 0.0
2016-Apr-18 00:05N 35°57' E 140°45'0 0.1
2016-Apr-17 21:16N 35°57' E 140°45'27 1.5
2016-Apr-17 03:13N 35°30' E 140°45'2311.8
2016-Apr-17 01:14N 35°11' E 140°27'3 3.4
2016-Apr-17 00:24N 35°14' E 140°29'4 4.4
2016-Apr-16 23:33N 35°17' E 140°32'5 5.2
2016-Apr-16 22:32N 35°21' E 140°36'6 5.5
2016-Apr-16 21:31N 35°25' E 140°40'14 6.8
2016-Apr-16 19:25N 35°37' E 140°51'  
Track history (hours):
 
Tides and Currents Weather Stations Pressure Air Temp Water Temp Dewpoint Dewpoint Depression Visibility Wind Speed Wind Dir Waves Ship Positions

Ryuoh Maru No.2

Last reported at 2016-Apr-22 19:17 UTC. Time now 2016-May-06 13:06 UTC.
Position N 36°21' E 141°01'.
Warning: this ship's position is 13 days out of date.

Length 80 m; draft 4.9 m.

Type: Cargo ship. MMSI: 431401218.

Date/timePositionNaut miles runAvg speedWind from/ knotsBaromVisibWave heightAir tempDewpointWater temp
2016-Apr-22 19:17N 36°21' E 141°01'8 9.7
2016-Apr-22 18:30N 36°14' E 141°00'9 9.7
2016-Apr-22 17:33N 36°05' E 140°59'2110.1
2016-Apr-22 15:31N 35°44' E 140°56'10 9.9
2016-Apr-22 14:33N 35°36' E 140°50'1110.6
2016-Apr-22 13:29N 35°27' E 140°42'1010.3
2016-Apr-22 12:33N 35°19' E 140°34'1211.6
2016-Apr-22 11:33N 35°10' E 140°26'1110.7
2016-Apr-22 10:33N 35°03' E 140°16'10 9.8
2016-Apr-22 09:32N 34°58' E 140°05'16 8.1
2016-Apr-22 07:33N 34°54' E 139°47'9 8.8
2016-Apr-22 06:33N 35°02' E 139°43'1010.5
2016-Apr-22 05:33N 35°12' E 139°46'9 9.3
2016-Apr-22 04:33N 35°21' E 139°42'5 5.2
2016-Apr-22 03:33N 35°24' E 139°48'3 2.7
2016-Apr-22 02:33N 35°22' E 139°51'0 0.0
2016-Apr-22 01:33N 35°22' E 139°51'0 0.0
2016-Apr-22 00:33N 35°22' E 139°51'0 0.0
2016-Apr-21 23:33N 35°22' E 139°51'0 0.0
2016-Apr-21 22:33N 35°22' E 139°51'1 1.1
2016-Apr-21 21:32N 35°22' E 139°49'0 0.0
2016-Apr-21 20:33N 35°22' E 139°49'0 0.0
2016-Apr-21 19:33N 35°22' E 139°49'0 0.0
2016-Apr-21 18:33N 35°22' E 139°49'0 0.1
2016-Apr-21 17:33N 35°22' E 139°49'0 0.0
2016-Apr-21 16:34N 35°22' E 139°49'0 0.1
2016-Apr-21 15:34N 35°22' E 139°49'0 0.0
2016-Apr-21 14:33N 35°22' E 139°49'0 0.1
2016-Apr-21 13:34N 35°22' E 139°49'0 0.1
2016-Apr-21 12:34N 35°22' E 139°49'0 0.1
2016-Apr-21 11:33N 35°22' E 139°49'0 0.0
2016-Apr-21 10:33N 35°22' E 139°49'0 0.0
2016-Apr-21 09:33N 35°22' E 139°49'0 0.0
2016-Apr-21 08:34N 35°22' E 139°49'0 0.0
2016-Apr-21 07:33N 35°22' E 139°49'0 0.0
2016-Apr-21 06:33N 35°22' E 139°49'0 0.0
2016-Apr-21 05:33N 35°22' E 139°49'0 0.1
2016-Apr-21 04:33N 35°22' E 139°49'0 0.0
2016-Apr-21 03:33N 35°22' E 139°49'0 0.0
2016-Apr-21 02:33N 35°22' E 139°49'0 0.0
2016-Apr-21 01:33N 35°22' E 139°49'0 0.0
2016-Apr-21 00:33N 35°22' E 139°49'0 0.0
2016-Apr-20 23:33N 35°22' E 139°49'0 0.1
2016-Apr-20 22:33N 35°22' E 139°49'0 0.1
2016-Apr-20 21:33N 35°22' E 139°49'0 0.0
2016-Apr-20 20:33N 35°22' E 139°49'0 0.0
2016-Apr-20 19:33N 35°22' E 139°49'0 0.0
2016-Apr-20 18:33N 35°22' E 139°49'0 0.0
2016-Apr-20 17:33N 35°22' E 139°49'0 0.0
2016-Apr-20 16:33N 35°22' E 139°49'0 0.0
2016-Apr-20 15:33N 35°22' E 139°49'0 0.0
2016-Apr-20 14:33N 35°22' E 139°49'0 0.0
2016-Apr-20 13:33N 35°22' E 139°49'0 0.0
2016-Apr-20 12:33N 35°22' E 139°49'0 0.0
2016-Apr-20 11:33N 35°22' E 139°49'0 0.1
2016-Apr-20 10:33N 35°22' E 139°49'0 0.0
2016-Apr-20 09:33N 35°22' E 139°49'0 0.0
2016-Apr-20 08:30N 35°22' E 139°49'0 0.0
2016-Apr-20 07:33N 35°22' E 139°49'0 0.0
2016-Apr-20 06:33N 35°22' E 139°49'0 0.0
2016-Apr-20 05:33N 35°22' E 139°49'0 0.0
2016-Apr-20 04:33N 35°22' E 139°49'0 0.0
2016-Apr-20 03:30N 35°22' E 139°49'0 0.0
2016-Apr-20 02:33N 35°22' E 139°49'0 0.1
2016-Apr-20 01:33N 35°22' E 139°49'0 0.0
2016-Apr-20 00:33N 35°22' E 139°49'0 0.0
2016-Apr-19 23:33N 35°22' E 139°49'0 0.0
2016-Apr-19 22:33N 35°22' E 139°49'0 0.0
2016-Apr-19 21:33N 35°22' E 139°49'0 0.0
2016-Apr-19 20:33N 35°22' E 139°49'0 0.0
2016-Apr-19 19:30N 35°22' E 139°49'0 0.0
2016-Apr-19 18:33N 35°22' E 139°49'0 0.0
2016-Apr-19 17:33N 35°22' E 139°49'0 0.0
2016-Apr-19 16:33N 35°22' E 139°49'0 0.0
2016-Apr-19 15:33N 35°22' E 139°49'0 0.0
2016-Apr-19 14:33N 35°22' E 139°49'0 0.0
2016-Apr-19 13:33N 35°22' E 139°49'0 0.0
2016-Apr-19 12:33N 35°22' E 139°49'0 0.0
2016-Apr-19 11:33N 35°22' E 139°49'0 0.0
2016-Apr-19 10:33N 35°22' E 139°49'0 0.1
2016-Apr-19 09:33N 35°22' E 139°49'0 0.1
2016-Apr-19 08:33N 35°22' E 139°49'0 0.0
2016-Apr-19 07:33N 35°22' E 139°49'0 0.1
2016-Apr-19 06:33N 35°22' E 139°49'6 5.6
2016-Apr-19 05:33N 35°17' E 139°46'1111.2
2016-Apr-19 04:33N 35°06' E 139°45'1110.6
2016-Apr-19 03:33N 34°55' E 139°46'1110.3
2016-Apr-19 02:30N 34°53' E 139°59'1010.1
2016-Apr-19 01:33N 34°59' E 140°08'18 8.8
2016-Apr-18 23:31N 35°10' E 140°26'1010.2
2016-Apr-18 22:33N 35°17' E 140°33'1110.9
2016-Apr-18 21:33N 35°26' E 140°41'1110.9
2016-Apr-18 20:33N 35°34' E 140°50'1110.1
2016-Apr-18 19:27N 35°45' E 140°55'910.1
2016-Apr-18 18:33N 35°53' E 140°50'6 5.5
2016-Apr-18 17:32N 35°57' E 140°45'0 0.0
2016-Apr-18 16:32N 35°57' E 140°45'0 0.0
2016-Apr-18 15:32N 35°57' E 140°45'0 0.0
2016-Apr-18 14:32N 35°57' E 140°45'0 0.0
2016-Apr-18 13:29N 35°57' E 140°45'0 0.0
2016-Apr-18 12:32N 35°57' E 140°45'0 0.0
2016-Apr-18 10:20N 35°57' E 140°45'0 0.0
2016-Apr-18 07:32N 35°57' E 140°45'0 0.0
2016-Apr-18 05:26N 35°57' E 140°44'0 0.0
2016-Apr-18 00:05N 35°57' E 140°45'0 0.1
2016-Apr-17 21:16N 35°57' E 140°45'27 1.5
2016-Apr-17 03:13N 35°30' E 140°45'2311.8
2016-Apr-17 01:14N 35°11' E 140°27'3 3.4
2016-Apr-17 00:24N 35°14' E 140°29'4 4.4
2016-Apr-16 23:33N 35°17' E 140°32'5 5.2
2016-Apr-16 22:32N 35°21' E 140°36'6 5.5
2016-Apr-16 21:31N 35°25' E 140°40'14 6.8
2016-Apr-16 19:25N 35°37' E 140°51'  

Dump ship's entire track history